Forside
METAR-TAF:

METAR-TAF

Lufthavne :

Danville, Illinois, USA

Breddekreds: 40-11-58N, længdekreds: 087-35-44W, højde: 212 m

Aktuelle vejr

Denne rapport blev lavet for 15 minutter siden, kl. 14:35 UTC
Vind stille
Temperatur 14°C
Fugtighed 94%
Tryk 1009 hPa
Sigt: 4.8 km
Overskyet i en højde af 300 ft
dis

METAR: KDNV 081435Z AUTO 00000KT 3SM BR OVC003 14/13 A2981 RMK AO2 T01360133

Tid: 09:50 (14:50 UTC)


TAF: fraværende

Vejrobservationer og prognoser fra mere end 4000 lufthavne (METAR og TAF).

De gule og røde prikker repræsenterer de meteorologiske stationer.

Flyt musen over at se navnet på stationen.

Så klik over at se vejr observationer og prognoser.

At skifte det kort: Klik på de grønne knapper med et sort kors for at zoome ind; på den grønne knap med en bindestreg for at zoome ud; eller på de grønne pile for tilstødende kort.


METAR-TAF: